Time;durP1;ratioP1;P1;durP2;ratioP2;P2;SDS_P1;SDS_P2;PMS_P1;PMS_P2;Temp;Humidity;BMP_temperature;BMP_pressure;BME280_temperature;BME280_humidity;BME280_pressure;Samples;Min_cycle;Max_cycle;Signal;HPM_P1;HPM_P2
2023/04/22 00:01:12;;;;;;;;;;;;;;;;;;2203014;59;15295;-23
2023/04/22 00:03:43;;;;;;;;;;;;;;;;;;2206676;59;1948;-23
2023/04/22 00:06:13;;;;;;;;;;;;;;;;;;2206592;59;1619;-23
2023/04/22 00:08:43;;;;;;;;;;;;;;;;;;2202451;67;1345;-23
2023/04/22 00:11:14;;;;;;;;;;;;;;;;;;2205863;67;1953;-23
2023/04/22 00:13:44;;;;;;;;;;;;;;;;;;2206412;67;1497;-23
2023/04/22 00:16:15;;;;;;;;;;;;;;;;;;2204139;67;14712;-23
2023/04/22 00:18:45;;;;;;;;;;;;;;;;;;2204278;67;1342;-23
2023/04/22 00:21:15;;;;;;;;;;;;;;;;;;2207010;59;1699;-23
2023/04/22 00:23:46;;;;;;;;;;;;;;;;;;2207207;67;1945;-23
2023/04/22 00:26:19;;;;;;;;;;;;;;;;;;2206931;67;1204;-23
2023/04/22 00:28:49;;;;;;;;;;;;;;;;;;2207204;59;1220;-23
2023/04/22 00:31:19;;;;;;;;;;;;;;;;;;2204401;59;14648;-23
2023/04/22 00:33:50;;;;;;;;;;;;;;;;;;2203606;59;1431;-23
2023/04/22 00:36:23;;;;;;;;;;;;;;;;;;2205422;67;1135;-23
2023/04/22 00:38:53;;;;;;;;;;;;;;;;;;2206670;67;1690;-23
2023/04/22 00:41:24;;;;;;;;;;;;;;;;;;2203577;59;2120;-23
2023/04/22 00:43:54;;;;;;;;;;;;;;;;;;2206911;59;2377;-23
2023/04/22 00:46:25;;;;;;;;;;;;;;;;;;2201409;64;12731;-22
2023/04/22 00:48:56;;;;;;;;;;;;;;;;;;2206945;67;1101;-23
2023/04/22 00:51:26;;;;;;;;;;;;;;;;;;2206928;67;1135;-23
2023/04/22 00:53:57;;;;;;;;;;;;;;;;;;2207261;59;1303;-23
2023/04/22 00:56:28;;;;;;;;;;;;;;;;;;2207515;59;1435;-23
2023/04/22 00:58:59;;;;;;;;;;;;;;;;;;2206850;67;1329;-23
2023/04/22 01:01:29;;;;;;;;;;;;;;;;;;2204772;59;13118;-23
2023/04/22 01:04:00;;;;;;;;;;;;;;;;;;2207424;59;1926;-23
2023/04/22 01:06:31;;;;;;;;;;;;;;;;;;2206974;67;2100;-23
2023/04/22 01:09:01;;;;;;;;;;;;;;;;;;2206990;67;1651;-23
2023/04/22 01:11:32;;;;;;;;;;;;;;;;;;2206509;67;1492;-23
2023/04/22 01:14:03;;;;;;;;;;;;;;;;;;2206186;67;1694;-23
2023/04/22 01:16:34;;;;;;;;;;;;;;;;;;2204022;64;13749;-23
2023/04/22 01:19:05;;;;;;;;;;;;;;;;;;2207058;67;1737;-23
2023/04/22 01:21:36;;;;;;;;;;;;;;;;;;2207080;59;1266;-23
2023/04/22 01:24:07;;;;;;;;;;;;;;;;;;2206056;67;1943;-23
2023/04/22 01:26:37;;;;;;;;;;;;;;;;;;2205983;67;1166;-23
2023/04/22 01:29:07;;;;;;;;;;;;;;;;;;2206944;59;1346;-23
2023/04/22 01:31:38;;;;;;;;;;;;;;;;;;2204578;59;12616;-23
2023/04/22 01:34:08;;;;;;;;;;;;;;;;;;2206926;59;1360;-23
2023/04/22 01:36:42;;;;;;;;;;;;;;;;;;2206703;67;1322;-23
2023/04/22 01:39:12;;;;;;;;;;;;;;;;;;2206888;67;1233;-23
2023/04/22 01:41:43;;;;;;;;;;;;;;;;;;2206764;67;1756;-23
2023/04/22 01:44:13;;;;;;;;;;;;;;;;;;2206794;67;1935;-23
2023/04/22 01:46:44;;;;;;;;;;;;;;;;;;2206740;67;1105;-23
2023/04/22 01:49:14;;;;;;;;;;;;;;;;;;2207064;67;1180;-23
2023/04/22 01:51:45;;;;;;;;;;;;;;;;;;2207001;59;1284;-23
2023/04/22 01:54:15;;;;;;;;;;;;;;;;;;2207553;59;1378;-23
2023/04/22 01:56:52;;;;;;;;;;;;;;;;;;2206310;59;1384;-23
2023/04/22 01:59:22;;;;;;;;;;;;;;;;;;2206951;67;2016;-23
2023/04/22 02:01:53;;;;;;;;;;;;;;;;;;2204140;59;12687;-23
2023/04/22 02:04:23;;;;;;;;;;;;;;;;;;2206677;59;1931;-23
2023/04/22 02:06:53;;;;;;;;;;;;;;;;;;2206854;67;1967;-23
2023/04/22 02:09:23;;;;;;;;;;;;;;;;;;2206692;67;1317;-23
2023/04/22 02:11:54;;;;;;;;;;;;;;;;;;2207051;67;1448;-23
2023/04/22 02:14:27;;;;;;;;;;;;;;;;;;2206518;67;1215;-23
2023/04/22 02:16:57;;;;;;;;;;;;;;;;;;2203725;67;12704;-23
2023/04/22 02:19:28;;;;;;;;;;;;;;;;;;2206126;67;1121;-23
2023/04/22 02:21:58;;;;;;;;;;;;;;;;;;2206795;59;1512;-23
2023/04/22 02:24:28;;;;;;;;;;;;;;;;;;2206802;67;1950;-23
2023/04/22 02:26:59;;;;;;;;;;;;;;;;;;2206553;67;1069;-23
2023/04/22 02:29:30;;;;;;;;;;;;;;;;;;2207242;59;1477;-23
2023/04/22 02:32:01;;;;;;;;;;;;;;;;;;2203703;59;12954;-23
2023/04/22 02:34:31;;;;;;;;;;;;;;;;;;2206970;59;1479;-23
2023/04/22 02:37:01;;;;;;;;;;;;;;;;;;2206805;59;1823;-23
2023/04/22 02:39:31;;;;;;;;;;;;;;;;;;2205912;67;1116;-23
2023/04/22 02:42:01;;;;;;;;;;;;;;;;;;2206012;67;1306;-23
2023/04/22 02:44:32;;;;;;;;;;;;;;;;;;2206015;67;2006;-23
2023/04/22 02:47:02;;;;;;;;;;;;;;;;;;2200220;67;12388;-23
2023/04/22 02:49:32;;;;;;;;;;;;;;;;;;2206574;67;1771;-23
2023/04/22 02:52:03;;;;;;;;;;;;;;;;;;2206863;59;2034;-23
2023/04/22 02:54:33;;;;;;;;;;;;;;;;;;2206355;59;1456;-23
2023/04/22 02:57:06;;;;;;;;;;;;;;;;;;2206109;59;2289;-23
2023/04/22 02:59:36;;;;;;;;;;;;;;;;;;2206441;67;1236;-23
2023/04/22 03:02:07;;;;;;;;;;;;;;;;;;2203529;59;13004;-23
2023/04/22 03:04:37;;;;;;;;;;;;;;;;;;2206264;59;1948;-23
2023/04/22 03:07:07;;;;;;;;;;;;;;;;;;2206527;67;1274;-23
2023/04/22 03:09:40;;;;;;;;;;;;;;;;;;2206381;67;1951;-23
2023/04/22 03:12:11;;;;;;;;;;;;;;;;;;2205673;67;2098;-23
2023/04/22 03:14:41;;;;;;;;;;;;;;;;;;2206760;67;2088;-23
2023/04/22 03:17:11;;;;;;;;;;;;;;;;;;2200605;59;12685;-24
2023/04/22 03:19:41;;;;;;;;;;;;;;;;;;2207025;67;1598;-23
2023/04/22 03:22:12;;;;;;;;;;;;;;;;;;2206009;59;1551;-23
2023/04/22 03:24:42;;;;;;;;;;;;;;;;;;2203291;67;2011;-23
2023/04/22 03:27:12;;;;;;;;;;;;;;;;;;2206373;67;1501;-23
2023/04/22 03:29:43;;;;;;;;;;;;;;;;;;2200744;59;1627;-23
2023/04/22 03:32:16;;;;;;;;;;;;;;;;;;2206917;59;1737;-23
2023/04/22 03:34:46;;;;;;;;;;;;;;;;;;2206675;59;1712;-23
2023/04/22 03:37:16;;;;;;;;;;;;;;;;;;2206517;67;2041;-23
2023/04/22 03:39:46;;;;;;;;;;;;;;;;;;2206831;67;1396;-23
2023/04/22 03:42:16;;;;;;;;;;;;;;;;;;2206875;67;1515;-23
2023/04/22 03:44:47;;;;;;;;;;;;;;;;;;2203188;67;1979;-23
2023/04/22 03:47:17;;;;;;;;;;;;;;;;;;2203884;59;13906;-23
2023/04/22 03:49:47;;;;;;;;;;;;;;;;;;2206174;67;1221;-23
2023/04/22 03:52:17;;;;;;;;;;;;;;;;;;2202247;59;1565;-23
2023/04/22 03:54:48;;;;;;;;;;;;;;;;;;2206768;59;1639;-23
2023/04/22 03:57:18;;;;;;;;;;;;;;;;;;2205717;67;1929;-23
2023/04/22 03:59:48;;;;;;;;;;;;;;;;;;2206300;67;1276;-23
2023/04/22 04:02:18;;;;;;;;;;;;;;;;;;2203377;59;12621;-23
2023/04/22 04:04:48;;;;;;;;;;;;;;;;;;2206259;59;1999;-23
2023/04/22 04:07:22;;;;;;;;;;;;;;;;;;2206642;67;1138;-23
2023/04/22 04:09:52;;;;;;;;;;;;;;;;;;2205886;67;1052;-23
2023/04/22 04:12:22;;;;;;;;;;;;;;;;;;2203299;67;1572;-23
2023/04/22 04:14:52;;;;;;;;;;;;;;;;;;2206235;67;1569;-23
2023/04/22 04:17:24;;;;;;;;;;;;;;;;;;2199719;67;12245;-23
2023/04/22 04:19:54;;;;;;;;;;;;;;;;;;2202689;67;1660;-23
2023/04/22 04:22:26;;;;;;;;;;;;;;;;;;2203464;59;1280;-23
2023/04/22 04:24:57;;;;;;;;;;;;;;;;;;2206089;67;1947;-23
2023/04/22 04:27:27;;;;;;;;;;;;;;;;;;2206349;59;1266;-23
2023/04/22 04:29:57;;;;;;;;;;;;;;;;;;2202964;59;1306;-24
2023/04/22 04:32:27;;;;;;;;;;;;;;;;;;2203321;59;12372;-23
2023/04/22 04:34:58;;;;;;;;;;;;;;;;;;2206130;67;1646;-22
2023/04/22 04:37:32;;;;;;;;;;;;;;;;;;2206498;67;1523;-23
2023/04/22 04:40:03;;;;;;;;;;;;;;;;;;2206366;67;1502;-22
2023/04/22 04:42:33;;;;;;;;;;;;;;;;;;2207020;67;1407;-23
2023/04/22 04:45:04;;;;;;;;;;;;;;;;;;2207833;67;1991;-23
2023/04/22 04:47:34;;;;;;;;;;;;;;;;;;2204130;67;12608;-23
2023/04/22 04:50:04;;;;;;;;;;;;;;;;;;2206109;67;1629;-23
2023/04/22 04:52:34;;;;;;;;;;;;;;;;;;2208610;59;1605;-24
2023/04/22 04:55:05;;;;;;;;;;;;;;;;;;2206353;59;1568;-23
2023/04/22 04:57:35;;;;;;;;;;;;;;;;;;2206241;67;1821;-23
2023/04/22 05:00:07;;;;;;;;;;;;;;;;;;2205475;67;1914;-23
2023/04/22 05:02:37;;;;;;;;;;;;;;;;;;2201428;59;22583;-23
2023/04/22 05:05:07;;;;;;;;;;;;;;;;;;2206899;59;1944;-23
2023/04/22 05:07:38;;;;;;;;;;;;;;;;;;2206666;67;1301;-24
2023/04/22 05:10:11;;;;;;;;;;;;;;;;;;2207042;67;1357;-23
2023/04/22 05:12:43;;;;;;;;;;;;;;;;;;2206790;67;1140;-23
2023/04/22 05:15:13;;;;;;;;;;;;;;;;;;2205647;59;2165;-23
2023/04/22 05:17:43;;;;;;;;;;;;;;;;;;2205348;67;12833;-23
2023/04/22 05:20:14;;;;;;;;;;;;;;;;;;2206860;59;1754;-23
2023/04/22 05:22:44;;;;;;;;;;;;;;;;;;2207050;67;1413;-23
2023/04/22 05:25:15;;;;;;;;;;;;;;;;;;2204221;67;1939;-23
2023/04/22 05:27:45;;;;;;;;;;;;;;;;;;2206329;59;1255;-23
2023/04/22 05:30:15;;;;;;;;;;;;;;;;;;2205177;59;2085;-23
2023/04/22 05:32:45;;;;;;;;;;;;;;;;;;2205523;59;12459;-23
2023/04/22 05:35:16;;;;;;;;;;;;;;;;;;2206958;67;1516;-23
2023/04/22 05:37:46;;;;;;;;;;;;;;;;;;2206238;67;1769;-23
2023/04/22 05:40:16;;;;;;;;;;;;;;;;;;2206687;67;2003;-23
2023/04/22 05:42:46;;;;;;;;;;;;;;;;;;2207183;67;1262;-23
2023/04/22 05:45:17;;;;;;;;;;;;;;;;;;2203703;67;1954;-23
2023/04/22 05:47:47;;;;;;;;;;;;;;;;;;2206652;67;1672;-23
2023/04/22 05:50:17;;;;;;;;;;;;;;;;;;2206566;67;1290;-23
2023/04/22 05:52:48;;;;;;;;;;;;;;;;;;2206568;59;1305;-23
2023/04/22 05:55:18;;;;;;;;;;;;;;;;;;2202085;59;1346;-23
2023/04/22 05:57:50;;;;;;;;;;;;;;;;;;2206632;67;1702;-23
2023/04/22 06:00:20;;;;;;;;;;;;;;;;;;2204550;59;17056;-24
2023/04/22 06:02:50;;;;;;;;;;;;;;;;;;2206268;59;1916;-23
2023/04/22 06:05:21;;;;;;;;;;;;;;;;;;2205950;59;2015;-23
2023/04/22 06:07:51;;;;;;;;;;;;;;;;;;2203354;67;1424;-23
2023/04/22 06:10:21;;;;;;;;;;;;;;;;;;2206807;67;1905;-23
2023/04/22 06:12:51;;;;;;;;;;;;;;;;;;2206068;67;1102;-23
2023/04/22 06:15:22;;;;;;;;;;;;;;;;;;2201038;59;15088;-23
2023/04/22 06:17:52;;;;;;;;;;;;;;;;;;2206307;67;1240;-23
2023/04/22 06:20:22;;;;;;;;;;;;;;;;;;2206432;59;1372;-23
2023/04/22 06:22:52;;;;;;;;;;;;;;;;;;2206769;67;1253;-23
2023/04/22 06:25:23;;;;;;;;;;;;;;;;;;2206547;67;1937;-23
2023/04/22 06:27:53;;;;;;;;;;;;;;;;;;2208344;67;1878;-24
2023/04/22 06:30:23;;;;;;;;;;;;;;;;;;2205656;59;12988;-24
2023/04/22 06:32:55;;;;;;;;;;;;;;;;;;2203166;59;1724;-23
2023/04/22 06:35:25;;;;;;;;;;;;;;;;;;2202842;67;1646;-23
2023/04/22 06:37:56;;;;;;;;;;;;;;;;;;2206107;67;1574;-23
2023/04/22 06:40:26;;;;;;;;;;;;;;;;;;2206185;67;2218;-23
2023/04/22 06:42:56;;;;;;;;;;;;;;;;;;2205049;59;2271;-23
2023/04/22 06:45:26;;;;;;;;;;;;;;;;;;2205528;67;15481;-24
2023/04/22 06:47:56;;;;;;;;;;;;;;;;;;2206617;59;2252;-24
2023/04/22 06:50:27;;;;;;;;;;;;;;;;;;2207135;59;1379;-23
2023/04/22 06:52:57;;;;;;;;;;;;;;;;;;2204334;59;2283;-23
2023/04/22 06:55:27;;;;;;;;;;;;;;;;;;2202031;59;1787;-23
2023/04/22 06:57:57;;;;;;;;;;;;;;;;;;2206359;59;2275;-23
2023/04/22 07:00:28;;;;;;;;;;;;;;;;;;2205827;67;13617;-23
2023/04/22 07:02:58;;;;;;;;;;;;;;;;;;2206009;59;2168;-23
2023/04/22 07:05:31;;;;;;;;;;;;;;;;;;2206750;59;1932;-23
2023/04/22 07:08:02;;;;;;;;;;;;;;;;;;2205627;59;2149;-23
2023/04/22 07:10:32;;;;;;;;;;;;;;;;;;2204707;59;2529;-23
2023/04/22 07:13:05;;;;;;;;;;;;;;;;;;2205153;59;2121;-23
2023/04/22 07:15:36;;;;;;;;;;;;;;;;;;2199941;59;12172;-23
2023/04/22 07:18:06;;;;;;;;;;;;;;;;;;2201335;59;2101;-23
2023/04/22 07:20:36;;;;;;;;;;;;;;;;;;2205005;59;2514;-23
2023/04/22 07:23:06;;;;;;;;;;;;;;;;;;2204556;67;2501;-23
2023/04/22 07:25:37;;;;;;;;;;;;;;;;;;2205345;59;2171;-23
2023/04/22 07:28:07;;;;;;;;;;;;;;;;;;2205128;59;2225;-24
2023/04/22 07:30:37;;;;;;;;;;;;;;;;;;2198692;59;17965;-24
2023/04/22 07:33:08;;;;;;;;;;;;;;;;;;2205444;59;1694;-24
2023/04/22 07:35:38;;;;;;;;;;;;;;;;;;2205755;59;2158;-23
2023/04/22 07:38:08;;;;;;;;;;;;;;;;;;2205698;59;2558;-23
2023/04/22 07:40:38;;;;;;;;;;;;;;;;;;2205629;67;2235;-24
2023/04/22 07:43:09;;;;;;;;;;;;;;;;;;2204608;59;2559;-23
2023/04/22 07:45:39;;;;;;;;;;;;;;;;;;2204527;67;16445;-24
2023/04/22 07:48:09;;;;;;;;;;;;;;;;;;2204711;59;2260;-24
2023/04/22 07:50:40;;;;;;;;;;;;;;;;;;2205191;67;1938;-24
2023/04/22 07:53:10;;;;;;;;;;;;;;;;;;2204840;59;2172;-24
2023/04/22 07:55:40;;;;;;;;;;;;;;;;;;2199891;59;1410;-24
2023/04/22 07:58:10;;;;;;;;;;;;;;;;;;2205338;59;2200;-24
2023/04/22 08:00:41;;;;;;;;;;;;;;;;;;2203874;59;1844;-24
2023/04/22 08:03:11;;;;;;;;;;;;;;;;;;2204050;59;2169;-24
2023/04/22 08:05:41;;;;;;;;;;;;;;;;;;2204674;59;2213;-24
2023/04/22 08:08:11;;;;;;;;;;;;;;;;;;2203892;59;2239;-24
2023/04/22 08:10:42;;;;;;;;;;;;;;;;;;2205636;67;2587;-24
2023/04/22 08:13:12;;;;;;;;;;;;;;;;;;2204529;59;2212;-24
2023/04/22 08:15:42;;;;;;;;;;;;;;;;;;2205881;67;1612;-24
2023/04/22 08:18:12;;;;;;;;;;;;;;;;;;2201222;59;2229;-24
2023/04/22 08:20:43;;;;;;;;;;;;;;;;;;2205992;59;1764;-24
2023/04/22 08:23:13;;;;;;;;;;;;;;;;;;2204096;59;2655;-24
2023/04/22 08:25:43;;;;;;;;;;;;;;;;;;2201218;67;1949;-24
2023/04/22 08:28:13;;;;;;;;;;;;;;;;;;2207799;59;2120;-24
2023/04/22 08:30:46;;;;;;;;;;;;;;;;;;2206322;59;13632;-24
2023/04/22 08:33:17;;;;;;;;;;;;;;;;;;2205474;59;2325;-24
2023/04/22 08:35:47;;;;;;;;;;;;;;;;;;2205538;59;2173;-24
2023/04/22 08:38:17;;;;;;;;;;;;;;;;;;2201909;59;2276;-24
2023/04/22 08:40:47;;;;;;;;;;;;;;;;;;2207225;67;1126;-24
2023/04/22 08:43:18;;;;;;;;;;;;;;;;;;2206521;59;2196;-24
2023/04/22 08:45:48;;;;;;;;;;;;;;;;;;2204559;59;26217;-24
2023/04/22 08:48:18;;;;;;;;;;;;;;;;;;2206152;59;2394;-24
2023/04/22 08:50:49;;;;;;;;;;;;;;;;;;2203210;59;2043;-24
2023/04/22 08:53:19;;;;;;;;;;;;;;;;;;2206821;59;2122;-24
2023/04/22 08:55:50;;;;;;;;;;;;;;;;;;2207348;59;1336;-24
2023/04/22 08:58:21;;;;;;;;;;;;;;;;;;2206081;59;2195;-24
2023/04/22 09:00:51;;;;;;;;;;;;;;;;;;2205949;59;16225;-24
2023/04/22 09:03:22;;;;;;;;;;;;;;;;;;2206305;59;2116;-24
2023/04/22 09:05:53;;;;;;;;;;;;;;;;;;2206862;60;1940;-24
2023/04/22 09:08:24;;;;;;;;;;;;;;;;;;2203237;59;1980;-24
2023/04/22 09:10:54;;;;;;;;;;;;;;;;;;2205720;59;2164;-24
2023/04/22 09:13:28;;;;;;;;;;;;;;;;;;2206891;67;1757;-24
2023/04/22 09:15:58;;;;;;;;;;;;;;;;;;2204002;59;13430;-24
2023/04/22 09:18:37;;;;;;;;;;;;;;;;;;2206677;59;2089;-24
2023/04/22 09:21:08;;;;;;;;;;;;;;;;;;2202163;59;2574;-24
2023/04/22 09:23:44;;;;;;;;;;;;;;;;;;2207096;59;2311;-24
2023/04/22 09:26:17;;;;;;;;;;;;;;;;;;2205554;59;2081;-24
2023/04/22 09:28:51;;;;;;;;;;;;;;;;;;2205819;59;2097;-22
2023/04/22 09:31:21;;;;;;;;;;;;;;;;;;2204119;59;12513;-24
2023/04/22 09:33:53;;;;;;;;;;;;;;;;;;2206729;59;1483;-24
2023/04/22 09:36:27;;;;;;;;;;;;;;;;;;2201778;59;2340;-24
2023/04/22 09:38:58;;;;;;;;;;;;;;;;;;2206442;59;2187;-23
2023/04/22 09:41:29;;;;;;;;;;;;;;;;;;2205188;59;2176;-24
2023/04/22 09:44:01;;;;;;;;;;;;;;;;;;2206895;59;2101;-24
2023/04/22 09:46:32;;;;;;;;;;;;;;;;;;2204931;59;2504;-22
2023/04/22 09:49:02;;;;;;;;;;;;;;;;;;2205842;59;2353;-22
2023/04/22 09:51:33;;;;;;;;;;;;;;;;;;2206900;59;2372;-23
2023/04/22 09:54:07;;;;;;;;;;;;;;;;;;2205222;59;2273;-24
2023/04/22 09:56:42;;;;;;;;;;;;;;;;;;2205710;59;2577;-22
2023/04/22 09:59:12;;;;;;;;;;;;;;;;;;2205557;59;2154;-24
2023/04/22 10:01:42;;;;;;;;;;;;;;;;;;2203463;59;13277;-22
2023/04/22 10:04:14;;;;;;;;;;;;;;;;;;2205063;59;2406;-22
2023/04/22 10:06:45;;;;;;;;;;;;;;;;;;2203858;67;1499;-22
2023/04/22 10:09:19;;;;;;;;;;;;;;;;;;2205542;67;1616;-22
2023/04/22 10:11:51;;;;;;;;;;;;;;;;;;2206564;67;1182;-22
2023/04/22 10:14:21;;;;;;;;;;;;;;;;;;2207287;59;2310;-22
2023/04/22 10:16:55;;;;;;;;;;;;;;;;;;2205331;67;14448;-22
2023/04/22 10:19:26;;;;;;;;;;;;;;;;;;2207388;67;1212;-22
2023/04/22 10:21:57;;;;;;;;;;;;;;;;;;2206063;59;2554;-22
2023/04/22 10:24:28;;;;;;;;;;;;;;;;;;2208504;67;1997;-22
2023/04/22 10:27:01;;;;;;;;;;;;;;;;;;2205056;67;1501;-22
2023/04/22 10:29:36;;;;;;;;;;;;;;;;;;2208159;59;2077;-22
2023/04/22 10:32:09;;;;;;;;;;;;;;;;;;2204470;59;18232;-23
2023/04/22 10:34:39;;;;;;;;;;;;;;;;;;2206852;59;2265;-22
2023/04/22 10:37:10;;;;;;;;;;;;;;;;;;2205522;67;1416;-22
2023/04/22 10:39:41;;;;;;;;;;;;;;;;;;2205748;59;2576;-22
2023/04/22 10:42:14;;;;;;;;;;;;;;;;;;2204615;59;2496;-23
2023/04/22 10:44:51;;;;;;;;;;;;;;;;;;2207041;59;2631;-23
2023/04/22 10:47:32;;;;;;;;;;;;;;;;;;2203284;59;17510;-23
2023/04/22 10:50:25;;;;;;;;;;;;;;;;;;2205255;59;2170;-23
2023/04/22 10:52:57;;;;;;;;;;;;;;;;;;2201332;59;2422;-23
2023/04/22 10:55:47;;;;;;;;;;;;;;;;;;2208170;59;2378;-23
2023/04/22 10:58:21;;;;;;;;;;;;;;;;;;2204194;59;2264;-23
2023/04/22 11:00:56;;;;;;;;;;;;;;;;;;2204467;59;15142;-23
2023/04/22 11:03:28;;;;;;;;;;;;;;;;;;2205993;59;2535;-23
2023/04/22 11:06:29;;;;;;;;;;;;;;;;;;2202467;59;1936;-23
2023/04/22 11:09:09;;;;;;;;;;;;;;;;;;2204119;59;2049;-23
2023/04/22 11:11:39;;;;;;;;;;;;;;;;;;2207490;67;1571;-23
2023/04/22 11:14:10;;;;;;;;;;;;;;;;;;2207822;59;2310;-24
2023/04/22 11:16:45;;;;;;;;;;;;;;;;;;2206637;59;1926;-23
2023/04/22 11:19:16;;;;;;;;;;;;;;;;;;2205464;59;2239;-23
2023/04/22 11:21:46;;;;;;;;;;;;;;;;;;2203786;59;1371;-22
2023/04/22 11:24:18;;;;;;;;;;;;;;;;;;2204544;59;2693;-23
2023/04/22 11:26:48;;;;;;;;;;;;;;;;;;2206322;59;2556;-23
2023/04/22 11:29:18;;;;;;;;;;;;;;;;;;2205742;59;2385;-23
2023/04/22 11:31:48;;;;;;;;;;;;;;;;;;2204715;59;15455;-23
2023/04/22 11:34:19;;;;;;;;;;;;;;;;;;2201515;59;2222;-23
2023/04/22 11:36:49;;;;;;;;;;;;;;;;;;2204948;59;1871;-23
2023/04/22 11:39:19;;;;;;;;;;;;;;;;;;2205953;59;2003;-23
2023/04/22 11:41:50;;;;;;;;;;;;;;;;;;2201470;67;2553;-24
2023/04/22 11:44:22;;;;;;;;;;;;;;;;;;2205375;59;2056;-24
2023/04/22 11:46:55;;;;;;;;;;;;;;;;;;2204757;59;14658;-24
2023/04/22 11:49:26;;;;;;;;;;;;;;;;;;2202409;59;2120;-24
2023/04/22 11:51:57;;;;;;;;;;;;;;;;;;2207389;59;2441;-23
2023/04/22 11:54:36;;;;;;;;;;;;;;;;;;2202338;59;2667;-23
2023/04/22 11:57:07;;;;;;;;;;;;;;;;;;2205770;59;1230;-23
2023/04/22 11:59:41;;;;;;;;;;;;;;;;;;2206557;67;2097;-23
2023/04/22 12:02:11;;;;;;;;;;;;;;;;;;2202219;59;13834;-23
2023/04/22 12:04:42;;;;;;;;;;;;;;;;;;2200919;59;2390;-23
2023/04/22 12:07:13;;;;;;;;;;;;;;;;;;2205117;59;2364;-23
2023/04/22 12:09:44;;;;;;;;;;;;;;;;;;2202977;59;2077;-23
2023/04/22 12:12:14;;;;;;;;;;;;;;;;;;2204641;67;2127;-23
2023/04/22 12:14:45;;;;;;;;;;;;;;;;;;2207357;59;2131;-23
2023/04/22 12:17:21;;;;;;;;;;;;;;;;;;2203417;67;21392;-23
2023/04/22 12:19:54;;;;;;;;;;;;;;;;;;2205530;59;2196;-24
2023/04/22 12:22:25;;;;;;;;;;;;;;;;;;2206012;59;2159;-23
2023/04/22 12:24:59;;;;;;;;;;;;;;;;;;2204861;59;2851;-24
2023/04/22 12:27:30;;;;;;;;;;;;;;;;;;2204970;59;2614;-25
2023/04/22 12:30:02;;;;;;;;;;;;;;;;;;2204361;59;2424;-23
2023/04/22 12:32:32;;;;;;;;;;;;;;;;;;2198803;59;16480;-23
2023/04/22 12:35:02;;;;;;;;;;;;;;;;;;2200852;59;2252;-25
2023/04/22 12:37:33;;;;;;;;;;;;;;;;;;2206084;59;2299;-23
2023/04/22 12:40:04;;;;;;;;;;;;;;;;;;2205378;59;2197;-24
2023/04/22 12:42:34;;;;;;;;;;;;;;;;;;2206490;60;2081;-24
2023/04/22 12:45:04;;;;;;;;;;;;;;;;;;2203219;59;2765;-24
2023/04/22 12:47:35;;;;;;;;;;;;;;;;;;2204400;59;33358;-23
2023/04/22 12:50:08;;;;;;;;;;;;;;;;;;2205641;59;2372;-23
2023/04/22 12:52:38;;;;;;;;;;;;;;;;;;2207047;59;2539;-23
2023/04/22 12:55:08;;;;;;;;;;;;;;;;;;2207371;59;2054;-24
2023/04/22 12:57:39;;;;;;;;;;;;;;;;;;2208875;67;1804;-24
2023/04/22 13:00:13;;;;;;;;;;;;;;;;;;2206577;59;2161;-25
2023/04/22 13:02:44;;;;;;;;;;;;;;;;;;2205147;59;20766;-24
2023/04/22 13:05:15;;;;;;;;;;;;;;;;;;2205269;59;2377;-23
2023/04/22 13:07:48;;;;;;;;;;;;;;;;;;2207955;59;1769;-24
2023/04/22 13:10:21;;;;;;;;;;;;;;;;;;2207039;67;2258;-23
2023/04/22 13:12:51;;;;;;;;;;;;;;;;;;2206555;59;2591;-23
2023/04/22 13:15:25;;;;;;;;;;;;;;;;;;2204742;66;25835;-23
2023/04/22 13:17:55;;;;;;;;;;;;;;;;;;2206198;59;2304;-23
2023/04/22 13:20:26;;;;;;;;;;;;;;;;;;2206317;59;2541;-23
2023/04/22 13:22:56;;;;;;;;;;;;;;;;;;2206900;59;2201;-23
2023/04/22 13:25:26;;;;;;;;;;;;;;;;;;2202295;59;2155;-23
2023/04/22 13:27:56;;;;;;;;;;;;;;;;;;2203184;59;2386;-23
2023/04/22 13:30:27;;;;;;;;;;;;;;;;;;2203914;59;17116;-23
2023/04/22 13:32:57;;;;;;;;;;;;;;;;;;2205501;59;2349;-23
2023/04/22 13:35:27;;;;;;;;;;;;;;;;;;2203912;59;2476;-23
2023/04/22 13:37:57;;;;;;;;;;;;;;;;;;2205144;59;2250;-23
2023/04/22 13:40:28;;;;;;;;;;;;;;;;;;2204016;59;2497;-24
2023/04/22 13:42:58;;;;;;;;;;;;;;;;;;2202394;59;2079;-24
2023/04/22 13:45:28;;;;;;;;;;;;;;;;;;2202703;59;14272;-24
2023/04/22 13:47:59;;;;;;;;;;;;;;;;;;2207338;67;1544;-22
2023/04/22 13:50:29;;;;;;;;;;;;;;;;;;2202109;59;2546;-23
2023/04/22 13:52:59;;;;;;;;;;;;;;;;;;2206609;59;2277;-25
2023/04/22 13:55:29;;;;;;;;;;;;;;;;;;2207816;59;1765;-24
2023/04/22 13:58:00;;;;;;;;;;;;;;;;;;2202295;59;2272;-24
2023/04/22 14:00:30;;;;;;;;;;;;;;;;;;2201846;59;20337;-24
2023/04/22 14:03:00;;;;;;;;;;;;;;;;;;2207008;59;2625;-24
2023/04/22 14:05:31;;;;;;;;;;;;;;;;;;2204065;59;2699;-24
2023/04/22 14:08:01;;;;;;;;;;;;;;;;;;2205517;59;2615;-24
2023/04/22 14:10:31;;;;;;;;;;;;;;;;;;2205480;59;2728;-24
2023/04/22 14:13:02;;;;;;;;;;;;;;;;;;2206420;59;2582;-24
2023/04/22 14:15:32;;;;;;;;;;;;;;;;;;2203987;59;14949;-23
2023/04/22 14:18:02;;;;;;;;;;;;;;;;;;2206306;53;2396;-17
2023/04/22 14:20:32;;;;;;;;;;;;;;;;;;2199313;59;2283;-17
2023/04/22 14:23:04;;;;;;;;;;;;;;;;;;2202513;67;2604;-17
2023/04/22 14:25:34;;;;;;;;;;;;;;;;;;2201311;59;2710;-18
2023/04/22 14:28:04;;;;;;;;;;;;;;;;;;2199779;59;2328;-17
2023/04/22 14:30:35;;;;;;;;;;;;;;;;;;2193559;59;33875;-17
2023/04/22 14:33:05;;;;;;;;;;;;;;;;;;2199297;59;1950;-18
2023/04/22 14:35:36;;;;;;;;;;;;;;;;;;2197742;59;2165;-17
2023/04/22 14:38:07;;;;;;;;;;;;;;;;;;2198057;59;2457;-17
2023/04/22 14:40:38;;;;;;;;;;;;;;;;;;2194047;59;2583;-17
2023/04/22 14:43:08;;;;;;;;;;;;;;;;;;2199167;67;2086;-17
2023/04/22 14:45:38;;;;;;;;;;;;;;;;;;2195551;59;49021;-18
2023/04/22 14:48:08;;;;;;;;;;;;;;;;;;2200947;59;2958;-17
2023/04/22 14:50:39;;;;;;;;;;;;;;;;;;2196543;59;2748;-17
2023/04/22 14:53:09;;;;;;;;;;;;;;;;;;2199580;59;2078;-17
2023/04/22 14:55:49;;;;;;;;;;;;;;;;;;2215635;58;2118;-16
2023/04/22 14:58:20;;;;;;;;;;;;;;;;;;2216133;58;2586;-15
2023/04/22 15:00:53;;;;;;;;;;;;;;;;;;2214588;58;12966;-15
2023/04/22 15:03:23;;;;;;;;;;;;;;;;;;2221788;58;2566;-15
2023/04/22 15:05:54;;;;;;;;;;;;;;;;;;2223534;58;2231;-15
2023/04/22 15:08:24;;;;;;;;;;;;;;;;;;2221751;58;2661;-15
2023/04/22 15:10:55;;;;;;;;;;;;;;;;;;2221790;58;2863;-14
2023/04/22 15:13:28;;;;;;;;;;;;;;;;;;2222749;58;2436;-16
2023/04/22 15:15:58;;;;;;;;;;;;;;;;;;2220914;58;12690;-15
2023/04/22 15:18:29;;;;;;;;;;;;;;;;;;2226555;66;2869;-16
2023/04/22 15:20:59;;;;;;;;;;;;;;;;;;2225544;58;2761;-15
2023/04/22 15:23:29;;;;;;;;;;;;;;;;;;2227155;66;2611;-16
2023/04/22 15:25:59;;;;;;;;;;;;;;;;;;2222560;58;2315;-15
2023/04/22 15:28:30;;;;;;;;;;;;;;;;;;2226740;66;2525;-15
2023/04/22 15:31:00;;;;;;;;;;;;;;;;;;2222401;58;15818;-15
2023/04/22 15:33:30;;;;;;;;;;;;;;;;;;2223348;58;2363;-15
2023/04/22 15:36:02;;;;;;;;;;;;;;;;;;2221732;66;2505;-15
2023/04/22 15:38:33;;;;;;;;;;;;;;;;;;2221882;58;2460;-16
2023/04/22 15:41:03;;;;;;;;;;;;;;;;;;2221858;58;2579;-16
2023/04/22 15:43:33;;;;;;;;;;;;;;;;;;2222326;58;2158;-17
2023/04/22 15:46:04;;;;;;;;;;;;;;;;;;2220428;58;33262;-16
2023/04/22 15:48:34;;;;;;;;;;;;;;;;;;2220708;58;3414;-17
2023/04/22 15:51:04;;;;;;;;;;;;;;;;;;2219774;58;2261;-16
2023/04/22 15:53:35;;;;;;;;;;;;;;;;;;2220220;58;2479;-16
2023/04/22 15:56:08;;;;;;;;;;;;;;;;;;2220484;58;2331;-15
2023/04/22 15:58:41;;;;;;;;;;;;;;;;;;2222532;58;2617;-16
2023/04/22 16:01:11;;;;;;;;;;;;;;;;;;2220039;58;16084;-17
2023/04/22 16:03:42;;;;;;;;;;;;;;;;;;2225447;58;2768;-15
2023/04/22 16:06:13;;;;;;;;;;;;;;;;;;2224630;58;3010;-15
2023/04/22 16:08:44;;;;;;;;;;;;;;;;;;2220155;58;3332;-15
2023/04/22 16:11:14;;;;;;;;;;;;;;;;;;2217502;59;2164;-14
2023/04/22 16:13:45;;;;;;;;;;;;;;;;;;2219256;58;2441;-15
2023/04/22 16:16:15;;;;;;;;;;;;;;;;;;2216809;58;19649;-15
2023/04/22 16:18:46;;;;;;;;;;;;;;;;;;2218179;58;2687;-15
2023/04/22 16:21:17;;;;;;;;;;;;;;;;;;2219525;58;2597;-27
2023/04/22 16:23:47;;;;;;;;;;;;;;;;;;2220057;58;2312;-15
2023/04/22 16:26:18;;;;;;;;;;;;;;;;;;2217138;58;2110;-15
2023/04/22 16:28:49;;;;;;;;;;;;;;;;;;2219743;58;2400;-14
2023/04/22 16:31:21;;;;;;;;;;;;;;;;;;2216833;58;12977;-15
2023/04/22 16:33:51;;;;;;;;;;;;;;;;;;2216738;58;2232;-15
2023/04/22 16:36:23;;;;;;;;;;;;;;;;;;2218244;58;2566;-15
2023/04/22 16:38:53;;;;;;;;;;;;;;;;;;2222724;58;2121;-15
2023/04/22 16:41:23;;;;;;;;;;;;;;;;;;2219142;58;2616;-15
2023/04/22 16:43:54;;;;;;;;;;;;;;;;;;2220107;58;2242;-14
2023/04/22 16:46:24;;;;;;;;;;;;;;;;;;2220810;59;2682;-14
2023/04/22 16:48:57;;;;;;;;;;;;;;;;;;2217915;58;2507;-15
2023/04/22 16:51:28;;;;;;;;;;;;;;;;;;2215387;58;2376;-15
2023/04/22 16:53:58;;;;;;;;;;;;;;;;;;2219816;58;2303;-14
2023/04/22 16:56:28;;;;;;;;;;;;;;;;;;2221074;58;2231;-15
2023/04/22 16:58:59;;;;;;;;;;;;;;;;;;2219776;58;2270;-14
2023/04/22 17:01:30;;;;;;;;;;;;;;;;;;2215602;58;12907;-15
2023/04/22 17:04:00;;;;;;;;;;;;;;;;;;2217802;58;2181;-14
2023/04/22 17:06:31;;;;;;;;;;;;;;;;;;2219508;58;2460;-15
2023/04/22 17:09:02;;;;;;;;;;;;;;;;;;2212044;58;2929;-14
2023/04/22 17:11:32;;;;;;;;;;;;;;;;;;2219221;58;2693;-15
2023/04/22 17:14:02;;;;;;;;;;;;;;;;;;2218990;58;2696;-15
2023/04/22 17:16:33;;;;;;;;;;;;;;;;;;2217104;66;15249;-15
2023/04/22 17:19:03;;;;;;;;;;;;;;;;;;2219518;58;2505;-15
2023/04/22 17:21:33;;;;;;;;;;;;;;;;;;2215118;58;2408;-14
2023/04/22 17:24:04;;;;;;;;;;;;;;;;;;2220199;59;2371;-15
2023/04/22 17:26:35;;;;;;;;;;;;;;;;;;2220079;66;2093;-16